createdAt,value
2019-01-21T00:01:37.721Z,99823.59
2019-01-21T00:04:08.510Z,99823.28
2019-01-21T00:06:38.936Z,99827.31
2019-01-21T00:09:09.828Z,99820.66
2019-01-21T00:11:40.399Z,99823.53
2019-01-21T00:14:10.910Z,99823.19
2019-01-21T00:16:41.327Z,99826.14
2019-01-21T00:19:11.779Z,99827.85
2019-01-21T00:21:42.203Z,99834.25
2019-01-21T00:24:12.661Z,99836.72
2019-01-21T00:26:43.169Z,99837.23
2019-01-21T00:29:13.600Z,99833.48
2019-01-21T00:31:44.054Z,99838.63
2019-01-21T00:34:14.463Z,99836.80
2019-01-21T00:36:44.908Z,99836.28
2019-01-21T00:39:15.357Z,99833.42
2019-01-21T00:41:45.763Z,99830.23
2019-01-21T00:44:16.211Z,99840.95
2019-01-21T00:46:46.681Z,99842.70
2019-01-21T00:49:17.110Z,99844.55
2019-01-21T00:51:47.533Z,99847.16
2019-01-21T00:54:17.996Z,99843.95
2019-01-21T00:56:48.503Z,99846.69
2019-01-21T00:59:19.019Z,99849.45
2019-01-21T01:01:49.440Z,99845.34
2019-01-21T01:04:19.871Z,99847.42
2019-01-21T01:06:50.370Z,99847.73
2019-01-21T01:09:20.783Z,99845.47
2019-01-21T01:11:51.227Z,99843.26
2019-01-21T01:14:21.674Z,99841.97
2019-01-21T01:16:52.079Z,99844.00
2019-01-21T01:19:22.546Z,99840.53
2019-01-21T01:21:52.961Z,99838.85
2019-01-21T01:24:23.424Z,99845.61
2019-01-21T01:26:53.854Z,99839.23
2019-01-21T01:29:24.372Z,99845.97
2019-01-21T01:31:54.796Z,99849.76
2019-01-21T01:34:25.203Z,99845.09
2019-01-21T01:36:55.690Z,99851.45
2019-01-21T01:39:26.084Z,99854.60
2019-01-21T01:41:56.650Z,99855.42
2019-01-21T01:44:27.544Z,99860.19
2019-01-21T01:46:57.997Z,99858.38
2019-01-21T01:49:28.420Z,99857.05
2019-01-21T01:51:58.835Z,99849.95
2019-01-21T01:54:29.295Z,99848.62
2019-01-21T01:56:59.977Z,99846.59
2019-01-21T01:59:30.439Z,99849.56
2019-01-21T02:02:00.951Z,99848.75
2019-01-21T02:04:31.358Z,99837.56
2019-01-21T02:07:01.863Z,99841.58
2019-01-21T02:09:32.323Z,99838.08
2019-01-21T02:12:02.838Z,99838.25
2019-01-21T02:14:33.247Z,99837.12
2019-01-21T02:17:03.730Z,99840.67
2019-01-21T02:19:36.354Z,99831.01
2019-01-21T02:22:06.894Z,99841.72
2019-01-21T02:24:41.529Z,99844.52
2019-01-21T02:27:21.635Z,99838.47
2019-01-21T02:30:26.508Z,99839.30
2019-01-21T02:33:58.564Z,99842.94
2019-01-21T02:37:10.159Z,99839.38
2019-01-21T02:39:56.661Z,99835.31
2019-01-21T02:43:01.616Z,99838.09
2019-01-21T02:45:55.515Z,99829.27
2019-01-21T02:48:52.721Z,99832.20
2019-01-21T02:51:50.726Z,99832.20
2019-01-21T02:54:48.695Z,99835.58
2019-01-21T02:57:55.799Z,99838.25
2019-01-21T03:00:51.481Z,99840.98
2019-01-21T03:03:39.707Z,99843.45
2019-01-21T03:06:44.514Z,99853.30
2019-01-21T03:09:46.926Z,99860.20
2019-01-21T03:12:56.214Z,99847.42
2019-01-21T03:16:02.949Z,99849.31
2019-01-21T03:19:15.552Z,99849.80
2019-01-21T03:22:14.146Z,99849.80
2019-01-21T03:25:27.212Z,99852.20
2019-01-21T03:28:26.078Z,99847.20
2019-01-21T03:32:01.665Z,99844.94
2019-01-21T03:35:11.345Z,99851.67
2019-01-21T03:38:15.884Z,99856.71
2019-01-21T03:41:10.110Z,99856.92
2019-01-21T03:44:12.494Z,99849.61
2019-01-21T03:47:05.629Z,99856.34
2019-01-21T03:49:56.707Z,99856.34
2019-01-21T03:52:50.724Z,99867.89
2019-01-21T03:55:21.497Z,99867.89
2019-01-21T03:58:40.626Z,99860.42
2019-01-21T04:01:32.126Z,99860.42
2019-01-21T04:04:43.778Z,99739.38
2019-01-21T04:07:43.556Z,99861.95
2019-01-21T04:10:46.595Z,99858.38
2019-01-21T04:14:03.705Z,99866.41
2019-01-21T04:17:08.990Z,99866.41
2019-01-21T04:20:03.792Z,99872.27
2019-01-21T04:22:58.509Z,99874.28
2019-01-21T04:26:12.306Z,99878.18
2019-01-21T04:29:02.952Z,99878.18
2019-01-21T04:32:12.369Z,99878.34
2019-01-21T04:35:09.363Z,99885.20
2019-01-21T04:38:11.842Z,99885.03
2019-01-21T04:41:47.426Z,99887.25
2019-01-21T04:44:53.251Z,99893.11
2019-01-21T04:47:58.498Z,99893.11
2019-01-21T04:51:15.670Z,99898.97
2019-01-21T04:54:15.743Z,99898.62
2019-01-21T04:57:12.159Z,99900.76
2019-01-21T05:00:32.057Z,99901.56
2019-01-21T05:03:54.010Z,99901.56
2019-01-21T05:07:23.166Z,99911.07
2019-01-21T05:10:37.397Z,99923.30
2019-01-21T05:13:33.203Z,99924.63
2019-01-21T05:16:36.883Z,99924.63
2019-01-21T05:19:32.370Z,99924.66
2019-01-21T05:23:04.788Z,99929.72
2019-01-21T05:26:06.820Z,99929.72
2019-01-21T05:29:06.234Z,99931.75
2019-01-21T05:32:24.631Z,99939.80
2019-01-21T05:35:53.501Z,99939.13
2019-01-21T05:38:51.182Z,99934.63
2019-01-21T05:42:23.480Z,99943.66
2019-01-21T05:45:36.132Z,99942.99
2019-01-21T05:48:59.300Z,99951.02
2019-01-21T05:52:13.536Z,99951.02
2019-01-21T05:55:06.566Z,99955.00
2019-01-21T05:58:20.472Z,99949.50
2019-01-21T06:01:58.603Z,99954.33
2019-01-21T06:04:48.238Z,99958.20
2019-01-21T06:07:54.632Z,99961.73
2019-01-21T06:10:40.847Z,99958.38
2019-01-21T06:13:56.286Z,99960.38
2019-01-21T06:16:51.913Z,99960.36
2019-01-21T06:19:59.102Z,99960.36
2019-01-21T06:23:03.080Z,99978.00
2019-01-21T06:26:38.536Z,99977.97
2019-01-21T06:29:59.258Z,99976.45
2019-01-21T06:33:15.437Z,99974.03
2019-01-21T06:36:41.843Z,99970.70
2019-01-21T06:39:41.090Z,99988.69
2019-01-21T06:42:53.831Z,99990.50
2019-01-21T06:46:10.878Z,99994.57
2019-01-21T06:49:13.540Z,99994.57
2019-01-21T06:52:29.746Z,99877.41
2019-01-21T06:55:36.270Z,99877.41
2019-01-21T06:58:53.126Z,100006.03
2019-01-21T07:01:50.215Z,100008.70
2019-01-21T07:05:02.372Z,100008.70
2019-01-21T07:08:03.260Z,100006.05
2019-01-21T07:11:02.307Z,100012.84
2019-01-21T07:14:10.233Z,100012.84
2019-01-21T07:17:01.793Z,100013.47
2019-01-21T07:20:01.397Z,99997.62
2019-01-21T07:22:54.931Z,99997.62
2019-01-21T07:26:14.623Z,99996.53
2019-01-21T07:29:21.473Z,99998.80
2019-01-21T07:32:17.143Z,100010.48
2019-01-21T07:35:24.468Z,100024.69
2019-01-21T07:38:31.575Z,100021.12
2019-01-21T07:41:27.345Z,100024.83
2019-01-21T07:44:24.027Z,100028.91
2019-01-21T07:47:39.782Z,100028.91
2019-01-21T07:51:08.999Z,100033.30
2019-01-21T07:54:25.607Z,100028.30
2019-01-21T07:57:40.184Z,100026.00
2019-01-21T08:00:41.017Z,100027.34
2019-01-21T08:03:56.509Z,100032.02
2019-01-21T08:07:07.549Z,100030.58
2019-01-21T08:10:10.918Z,100036.55
2019-01-21T08:13:16.678Z,100037.80
2019-01-21T08:16:33.695Z,100042.91
2019-01-21T08:19:49.376Z,100044.80
2019-01-21T08:22:51.314Z,100039.97
2019-01-21T08:26:17.231Z,100040.70
2019-01-21T08:29:29.510Z,100038.31
2019-01-21T08:32:37.010Z,100047.91
2019-01-21T08:35:42.756Z,100048.08
2019-01-21T08:39:14.706Z,100050.81
2019-01-21T08:42:21.111Z,100038.84
2019-01-21T08:45:44.040Z,100044.97
2019-01-21T08:48:39.657Z,100044.97
2019-01-21T08:51:33.571Z,100038.29
2019-01-21T08:54:56.746Z,100053.13
2019-01-21T08:58:06.568Z,100052.89
2019-01-21T09:00:59.208Z,100054.82
2019-01-21T09:03:42.071Z,100063.28
2019-01-21T09:07:09.027Z,100060.97
2019-01-21T09:09:50.031Z,100055.22
2019-01-21T09:13:07.198Z,100066.24
2019-01-21T09:16:21.710Z,100058.61
2019-01-21T09:19:12.577Z,100052.23
2019-01-21T09:22:13.477Z,100055.65
2019-01-21T09:25:13.798Z,100052.36
2019-01-21T09:28:01.231Z,100048.13
2019-01-21T09:30:51.970Z,100039.09
2019-01-21T09:33:52.061Z,100038.98
2019-01-21T09:36:31.528Z,100043.98
2019-01-21T09:39:29.268Z,100035.48
2019-01-21T09:42:22.402Z,100035.47
2019-01-21T09:45:13.965Z,100029.42
2019-01-21T09:47:42.449Z,100025.59
2019-01-21T09:50:13.185Z,100022.35
2019-01-21T09:52:44.603Z,100020.61
2019-01-21T09:55:16.512Z,100020.88
2019-01-21T09:57:47.916Z,100013.37
2019-01-21T10:00:20.002Z,100006.89
2019-01-21T10:02:52.395Z,100012.91
2019-01-21T10:05:26.096Z,100006.64
2019-01-21T10:08:18.189Z,100008.78
2019-01-21T10:11:09.547Z,99999.86
2019-01-21T10:14:19.744Z,99999.08
2019-01-21T10:17:08.150Z,100001.38
2019-01-21T10:20:12.709Z,100000.14
2019-01-21T10:23:19.516Z,99994.81
2019-01-21T10:26:33.559Z,99994.14
2019-01-21T10:29:23.055Z,99984.62
2019-01-21T10:32:18.238Z,99990.55
2019-01-21T10:35:29.057Z,99983.03
2019-01-21T10:38:37.841Z,99978.54
2019-01-21T10:41:22.066Z,99972.06
2019-01-21T10:44:11.045Z,99974.43
2019-01-21T10:47:12.105Z,99971.06
2019-01-21T10:50:14.130Z,99969.87
2019-01-21T10:53:27.046Z,99963.23
2019-01-21T10:56:47.273Z,99970.67
2019-01-21T10:59:35.319Z,99966.88
2019-01-21T11:02:47.895Z,99963.77
2019-01-21T11:05:54.228Z,99963.22
2019-01-21T11:09:26.832Z,99957.89
2019-01-21T11:12:35.634Z,99961.45
2019-01-21T11:15:39.571Z,99956.92
2019-01-21T11:18:42.001Z,99956.81
2019-01-21T11:21:51.875Z,99948.83
2019-01-21T11:24:55.030Z,99947.97
2019-01-21T11:28:01.833Z,99943.91
2019-01-21T11:31:17.987Z,99943.67
2019-01-21T11:34:26.460Z,99946.61
2019-01-21T11:37:31.797Z,99935.83
2019-01-21T11:40:44.750Z,99932.75
2019-01-21T11:43:57.523Z,99932.37
2019-01-21T11:47:12.468Z,99928.02
2019-01-21T11:50:20.905Z,99918.01
2019-01-21T11:53:16.815Z,99918.42
2019-01-21T11:56:30.100Z,99919.77
2019-01-21T11:59:47.446Z,99918.38
2019-01-21T12:02:45.343Z,99917.68
2019-01-21T12:05:24.886Z,99921.40
2019-01-21T12:09:00.196Z,99917.17
2019-01-21T12:12:13.282Z,99919.47
2019-01-21T12:15:38.193Z,99921.69
2019-01-21T12:18:33.721Z,99912.20
2019-01-21T12:21:40.939Z,99911.43
2019-01-21T12:24:32.911Z,99909.71
2019-01-21T12:27:55.421Z,99914.97
2019-01-21T12:30:39.978Z,99913.00
2019-01-21T12:33:31.887Z,99906.48
2019-01-21T12:36:33.076Z,99913.09
2019-01-21T12:39:22.657Z,99910.83
2019-01-21T12:42:24.065Z,99911.25
2019-01-21T12:45:53.869Z,99913.03
2019-01-21T12:49:15.274Z,99914.10
2019-01-21T12:52:00.997Z,99917.23
2019-01-21T12:54:59.214Z,99910.25
2019-01-21T12:57:56.340Z,99917.94
2019-01-21T13:00:53.960Z,99916.41
2019-01-21T13:03:44.315Z,99919.71
2019-01-21T13:07:04.240Z,99909.50
2019-01-21T13:09:45.329Z,99908.38
2019-01-21T13:12:42.677Z,99910.32
2019-01-21T13:15:27.526Z,99916.83
2019-01-21T13:18:30.547Z,99914.39
2019-01-21T13:21:36.628Z,99919.05
2019-01-21T13:24:53.554Z,99923.72
2019-01-21T13:27:52.740Z,99922.89
2019-01-21T13:30:59.415Z,99917.83
2019-01-21T13:33:56.312Z,99789.39
2019-01-21T13:37:20.776Z,99909.33
2019-01-21T13:40:12.907Z,99910.73
2019-01-21T13:43:05.777Z,99910.41
2019-01-21T13:46:04.826Z,99913.34
2019-01-21T13:49:07.464Z,99912.93
2019-01-21T13:52:42.657Z,99928.89
2019-01-21T13:55:33.337Z,99921.70
2019-01-21T13:59:11.484Z,99921.36
2019-01-21T14:02:08.315Z,99921.59
2019-01-21T14:05:09.928Z,99925.55
2019-01-21T14:08:03.290Z,99927.94
2019-01-21T14:10:59.027Z,99926.92
2019-01-21T14:14:01.394Z,99918.51
2019-01-21T14:17:03.681Z,99918.96
2019-01-21T14:19:52.698Z,99922.77
2019-01-21T14:22:50.756Z,99925.81
2019-01-21T14:25:49.497Z,99919.80
2019-01-21T14:29:00.861Z,99923.63
2019-01-21T14:32:26.147Z,99928.56
2019-01-21T14:35:07.427Z,99924.23
2019-01-21T14:38:15.821Z,99928.02
2019-01-21T14:41:29.917Z,99931.05
2019-01-21T14:44:33.798Z,99934.07
2019-01-21T14:47:37.024Z,99938.07
2019-01-21T14:50:34.752Z,99944.91
2019-01-21T14:53:39.224Z,99949.31
2019-01-21T14:56:42.318Z,99952.91
2019-01-21T14:59:43.178Z,99956.91
2019-01-21T15:02:46.156Z,99958.03
2019-01-21T15:06:03.175Z,99958.80
2019-01-21T15:08:57.875Z,99965.07
2019-01-21T15:12:07.630Z,99970.02
2019-01-21T15:15:14.451Z,99967.82
2019-01-21T15:18:15.649Z,99977.64
2019-01-21T15:21:04.201Z,99982.91
2019-01-21T15:24:11.094Z,99984.53
2019-01-21T15:27:03.982Z,99981.36
2019-01-21T15:29:59.844Z,99983.49
2019-01-21T15:32:54.954Z,99986.20
2019-01-21T15:36:11.979Z,99874.27
2019-01-21T15:39:03.773Z,100005.22
2019-01-21T15:41:44.592Z,100002.72
2019-01-21T15:44:33.022Z,100016.55
2019-01-21T15:47:35.978Z,100024.16
2019-01-21T15:50:41.085Z,100030.37
2019-01-21T15:53:31.014Z,100032.69
2019-01-21T15:56:39.756Z,100040.03
2019-01-21T15:59:49.166Z,100039.61
2019-01-21T16:02:31.383Z,100045.00
2019-01-21T16:05:23.860Z,100053.81
2019-01-21T16:08:21.248Z,100054.34
2019-01-21T16:11:38.230Z,100056.52
2019-01-21T16:14:26.136Z,99944.66
2019-01-21T16:17:22.581Z,100065.70
2019-01-21T16:20:01.005Z,100077.02
2019-01-21T16:23:09.894Z,100075.86
2019-01-21T16:26:23.851Z,100076.71
2019-01-21T16:29:32.620Z,100086.05
2019-01-21T16:32:52.780Z,100088.66
2019-01-21T16:36:11.068Z,100092.08
2019-01-21T16:39:16.957Z,100091.36
2019-01-21T16:42:13.078Z,100094.45
2019-01-21T16:44:44.995Z,100098.10
2019-01-21T16:47:15.547Z,100103.30
2019-01-21T16:49:46.219Z,100108.98
2019-01-21T16:52:16.738Z,100109.94
2019-01-21T16:54:47.156Z,100115.53
2019-01-21T16:57:17.628Z,100126.13
2019-01-21T16:59:48.084Z,100121.88
2019-01-21T17:02:18.500Z,100124.68
2019-01-21T17:04:49.069Z,100131.00
2019-01-21T17:07:19.493Z,100128.63
2019-01-21T17:09:50.052Z,100134.42
2019-01-21T17:12:20.508Z,100131.52
2019-01-21T17:14:57.485Z,100137.34
2019-01-21T17:17:23.117Z,100138.07
2019-01-21T17:19:53.577Z,100137.64
2019-01-21T17:22:24.049Z,100134.84
2019-01-21T17:24:54.485Z,100136.53
2019-01-21T17:27:24.939Z,100140.97
2019-01-21T17:29:55.488Z,100139.22
2019-01-21T17:32:25.905Z,100139.81
2019-01-21T17:34:56.834Z,100143.66
2019-01-21T17:37:27.278Z,100141.06
2019-01-21T17:39:57.836Z,100146.36
2019-01-21T17:42:28.255Z,100146.26
2019-01-21T17:44:58.709Z,100140.23
2019-01-21T17:47:29.129Z,100145.20
2019-01-21T17:49:59.692Z,100147.17
2019-01-21T17:52:30.109Z,100147.70
2019-01-21T17:55:00.576Z,100155.59
2019-01-21T17:57:31.005Z,100162.11
2019-01-21T18:00:01.465Z,100162.73
2019-01-21T18:02:31.888Z,100162.20
2019-01-21T18:05:02.308Z,100172.06
2019-01-21T18:07:32.769Z,100170.62
2019-01-21T18:10:03.188Z,100165.12
2019-01-21T18:12:33.660Z,100171.23
2019-01-21T18:15:04.536Z,100171.00
2019-01-21T18:17:34.987Z,100176.48
2019-01-21T18:20:07.845Z,100174.57
2019-01-21T18:22:38.318Z,100179.31
2019-01-21T18:25:10.092Z,100188.02
2019-01-21T18:27:40.615Z,100185.56
2019-01-21T18:30:17.676Z,100185.15
2019-01-21T18:32:48.298Z,100190.42
2019-01-21T18:35:18.747Z,100180.52
2019-01-21T18:37:49.267Z,100192.05
2019-01-21T18:40:20.791Z,100183.82
2019-01-21T18:42:51.790Z,100206.39
2019-01-21T18:45:24.928Z,100198.52
2019-01-21T18:47:55.509Z,100200.88
2019-01-21T18:50:26.094Z,100197.17
2019-01-21T18:52:56.664Z,100203.95
2019-01-21T18:55:27.185Z,100212.80
2019-01-21T18:57:57.677Z,100212.48
2019-01-21T19:00:28.232Z,100211.13
2019-01-21T19:02:58.683Z,100214.59
2019-01-21T19:05:29.203Z,100213.95
2019-01-21T19:07:59.672Z,100214.69
2019-01-21T19:10:30.136Z,100208.84
2019-01-21T19:13:00.609Z,100213.52
2019-01-21T19:15:32.778Z,100212.95
2019-01-21T19:18:03.695Z,100207.64
2019-01-21T19:20:34.098Z,100218.77
2019-01-21T19:23:04.664Z,100221.91
2019-01-21T19:25:35.229Z,100216.78
2019-01-21T19:28:05.851Z,100225.50
2019-01-21T19:30:36.330Z,100231.22
2019-01-21T19:33:06.854Z,100235.13
2019-01-21T19:35:38.646Z,100237.95
2019-01-21T19:38:09.148Z,100248.00
2019-01-21T19:40:39.622Z,100245.42
2019-01-21T19:43:10.026Z,100249.71
2019-01-21T19:45:40.488Z,100259.98
2019-01-21T19:48:11.006Z,100260.84
2019-01-21T19:50:41.436Z,100261.16
2019-01-21T19:53:11.893Z,100263.27
2019-01-21T19:55:43.955Z,100265.27
2019-01-21T19:58:14.889Z,100271.80
2019-01-21T20:00:45.414Z,100271.67
2019-01-21T20:03:15.935Z,100270.25
2019-01-21T20:05:46.499Z,100270.78
2019-01-21T20:08:16.916Z,100269.13
2019-01-21T20:10:47.386Z,100272.23
2019-01-21T20:13:17.811Z,100270.57
2019-01-21T20:15:48.243Z,100276.20
2019-01-21T20:18:18.709Z,100267.89
2019-01-21T20:20:49.116Z,100273.27
2019-01-21T20:23:19.594Z,100275.47
2019-01-21T20:25:50.008Z,100269.02
2019-01-21T20:28:20.435Z,100275.56
2019-01-21T20:30:50.856Z,100280.50
2019-01-21T20:33:21.305Z,100284.92
2019-01-21T20:35:51.737Z,100278.07
2019-01-21T20:38:22.201Z,100296.81
2019-01-21T20:40:52.631Z,100291.48
2019-01-21T20:43:23.087Z,100291.83
2019-01-21T20:45:53.506Z,100297.20
2019-01-21T20:48:23.943Z,100299.54
2019-01-21T20:50:54.452Z,100298.59
2019-01-21T20:53:24.904Z,100306.13
2019-01-21T20:55:55.338Z,100310.47
2019-01-21T20:58:25.896Z,100310.51
2019-01-21T21:00:56.428Z,100312.16
2019-01-21T21:03:26.900Z,100316.57
2019-01-21T21:05:57.336Z,100316.70
2019-01-21T21:08:27.796Z,100313.80
2019-01-21T21:10:58.267Z,100324.16
2019-01-21T21:13:28.691Z,100318.75
2019-01-21T21:15:59.116Z,100323.47
2019-01-21T21:18:29.584Z,100319.75
2019-01-21T21:21:00.055Z,100319.44
2019-01-21T21:23:30.525Z,100325.77
2019-01-21T21:26:00.976Z,100328.41
2019-01-21T21:28:31.614Z,100330.88
2019-01-21T21:31:02.042Z,100329.54
2019-01-21T21:33:32.517Z,100330.75
2019-01-21T21:36:02.945Z,100326.11
2019-01-21T21:38:33.398Z,100331.48
2019-01-21T21:41:04.241Z,100319.23
2019-01-21T21:43:34.664Z,100315.49
2019-01-21T21:46:05.261Z,100318.91
2019-01-21T21:48:35.711Z,100321.77
2019-01-21T21:51:06.145Z,100330.65
2019-01-21T21:53:36.784Z,100328.55
2019-01-21T21:56:07.205Z,100334.09
2019-01-21T21:58:37.683Z,100327.17
2019-01-21T22:01:08.244Z,100332.03
2019-01-21T22:03:38.650Z,100342.66
2019-01-21T22:06:09.230Z,100339.05
2019-01-21T22:08:39.685Z,100334.98
2019-01-21T22:11:10.110Z,100336.45
2019-01-21T22:13:40.685Z,100336.19
2019-01-21T22:16:11.104Z,100336.53
2019-01-21T22:18:41.562Z,100338.35
2019-01-21T22:21:11.983Z,100336.88
2019-01-21T22:23:42.441Z,100337.05
2019-01-21T22:26:12.901Z,100329.11
2019-01-21T22:28:43.634Z,100324.46
2019-01-21T22:31:14.059Z,100326.55
2019-01-21T22:33:44.516Z,100323.22
2019-01-21T22:36:14.948Z,100323.97
2019-01-21T22:38:45.409Z,100320.30
2019-01-21T22:41:15.868Z,100330.30
2019-01-21T22:43:46.276Z,100327.11
2019-01-21T22:46:16.693Z,100328.90
2019-01-21T22:48:47.112Z,100326.87
2019-01-21T22:51:17.637Z,100324.70
2019-01-21T22:53:48.110Z,100331.10
2019-01-21T22:56:18.530Z,100323.25
2019-01-21T22:58:48.959Z,100330.88
2019-01-21T23:01:24.641Z,100329.72
2019-01-21T23:03:55.241Z,100327.66
2019-01-21T23:06:25.795Z,100325.25
2019-01-21T23:08:56.253Z,100327.28
2019-01-21T23:11:26.665Z,100323.91
2019-01-21T23:13:57.080Z,100322.91
2019-01-21T23:16:27.539Z,100322.29
2019-01-21T23:18:57.967Z,100317.23
2019-01-21T23:21:28.374Z,100320.16
2019-01-21T23:23:58.835Z,100315.95
2019-01-21T23:26:29.235Z,100316.44
2019-01-21T23:28:59.800Z,100315.75
2019-01-21T23:31:30.272Z,100322.32
2019-01-21T23:34:00.741Z,100316.55
2019-01-21T23:36:31.233Z,100313.00
2019-01-21T23:39:01.935Z,100312.31
2019-01-21T23:41:32.409Z,100308.11
2019-01-21T23:44:02.915Z,100310.97
2019-01-21T23:46:33.366Z,100305.91
2019-01-21T23:49:03.777Z,100312.24
2019-01-21T23:51:34.475Z,100309.28
2019-01-21T23:54:05.028Z,100305.63
2019-01-21T23:56:35.454Z,100311.16
2019-01-21T23:59:06.019Z,100311.65
